Time;durP1;ratioP1;P1;durP2;ratioP2;P2;SDS_P1;SDS_P2;PMS_P1;PMS_P2;Temp;Humidity;BMP_temperature;BMP_pressure;BME280_temperature;BME280_humidity;BME280_pressure;Samples;Min_cycle;Max_cycle;Signal;HPM_P1;HPM_P2
2021/08/21 00:02:22;;;;;;;;;4.75;4.25;;;;;25.32;43.00;101329.03;5102325;27;51035;-44
2021/08/21 00:04:49;;;;;;;;;4.75;4.75;;;;;25.32;42.80;101317.97;5120142;27;51306;-47
2021/08/21 00:07:15;;;;;;;;;5.25;5.00;;;;;25.32;42.94;101323.50;5120717;27;50926;-46
2021/08/21 00:09:40;;;;;;;;;3.50;3.50;;;;;25.31;43.14;101321.78;5118384;27;52317;-46
2021/08/21 00:12:06;;;;;;;;;5.00;4.00;;;;;25.31;42.98;101324.56;5101361;27;50870;-50
2021/08/21 00:14:33;;;;;;;;;3.00;3.00;;;;;25.31;43.06;101319.00;5081776;27;51026;-47
2021/08/21 00:16:58;;;;;;;;;7.00;3.25;;;;;25.31;43.00;101315.41;5100171;27;51457;-45
2021/08/21 00:19:24;;;;;;;;;4.25;4.25;;;;;25.32;43.18;101317.09;5100687;27;51689;-45
2021/08/21 00:21:49;;;;;;;;;4.00;4.00;;;;;25.32;42.78;101311.53;5099668;27;50951;-45
2021/08/21 00:24:15;;;;;;;;;4.25;4.25;;;;;25.31;43.00;101309.84;5100048;27;51119;-45
2021/08/21 00:26:41;;;;;;;;;4.00;4.00;;;;;25.31;43.04;101310.69;5107488;27;50955;-46
2021/08/21 00:29:06;;;;;;;;;6.25;4.00;;;;;25.30;43.15;101309.00;5118046;27;50987;-44
2021/08/21 00:31:31;;;;;;;;;6.00;4.25;;;;;25.31;43.05;101307.91;5114120;27;51117;-49
2021/08/21 00:33:57;;;;;;;;;4.50;4.50;;;;;25.31;43.25;101304.31;5114022;27;51178;-46
2021/08/21 00:36:22;;;;;;;;;6.00;6.00;;;;;25.30;43.15;101300.69;5101907;27;50990;-46
2021/08/21 00:38:47;;;;;;;;;6.00;6.00;;;;;25.30;43.07;101299.84;5098045;27;52608;-47
2021/08/21 00:41:13;;;;;;;;;8.50;6.75;;;;;25.30;43.12;101305.41;5116723;27;51043;-41
2021/08/21 00:43:39;;;;;;;;;5.00;5.00;;;;;25.28;42.88;101294.56;5120452;27;51003;-42
2021/08/21 00:46:05;;;;;;;;;6.50;6.50;;;;;25.27;42.75;101292.03;5111360;27;51181;-41
2021/08/21 00:48:30;;;;;;;;;6.00;6.00;;;;;25.26;42.93;101284.81;5112516;27;51121;-42
2021/08/21 00:50:58;;;;;;;;;5.25;4.50;;;;;25.24;42.85;101281.44;5119854;27;50975;-42
2021/08/21 00:53:25;;;;;;;;;6.00;5.00;;;;;25.23;42.53;101286.13;5104980;27;51246;-42
2021/08/21 00:55:50;;;;;;;;;5.00;5.00;;;;;25.21;42.79;101296.59;5102280;27;51030;-44
2021/08/21 00:58:18;;;;;;;;;4.50;4.00;;;;;25.20;42.68;101291.31;5119297;27;51754;-41
2021/08/21 01:00:44;;;;;;;;;3.75;3.75;;;;;25.19;42.96;101295.16;5119366;27;50862;-42
2021/08/21 01:03:09;;;;;;;;;6.00;5.00;;;;;25.18;42.60;101287.94;5107745;27;51168;-41
2021/08/21 01:05:35;;;;;;;;;6.50;5.25;;;;;25.16;42.73;101288.19;5099486;27;51063;-41
2021/08/21 01:08:00;;;;;;;;;3.00;3.00;;;;;25.15;42.88;101283.72;5098766;27;51805;-42
2021/08/21 01:10:25;;;;;;;;;4.00;4.00;;;;;25.15;42.85;101289.28;5099170;27;51058;-44
2021/08/21 01:12:53;;;;;;;;;3.50;2.50;;;;;25.13;42.87;101283.13;5111954;27;51787;-40
2021/08/21 01:15:23;;;;;;;;;5.50;4.00;;;;;25.12;42.85;101275.06;5107645;27;51042;-42
2021/08/21 01:17:50;;;;;;;;;5.00;5.00;;;;;25.09;42.80;101273.59;5098731;27;52128;-41
2021/08/21 01:20:15;;;;;;;;;2.25;2.25;;;;;25.09;42.92;101270.84;5097211;27;51062;-42
2021/08/21 01:22:41;;;;;;;;;3.50;3.50;;;;;25.09;42.82;101278.31;5108453;27;51238;-41
2021/08/21 01:25:13;;;;;;;;;5.75;4.00;;;;;25.07;42.62;101281.31;5098927;27;51256;-40
2021/08/21 01:27:38;;;;;;;;;4.00;2.00;;;;;25.07;42.85;101283.25;5080536;27;53923;-41
2021/08/21 01:30:04;;;;;;;;;6.25;4.00;;;;;25.04;42.76;101279.03;5099921;27;51046;-40
2021/08/21 01:32:29;;;;;;;;;4.75;3.75;;;;;25.02;42.92;101272.91;5112806;27;51033;-44
2021/08/21 01:34:56;;;;;;;;;5.25;4.00;;;;;25.02;43.02;101273.75;5094441;27;51228;-44
2021/08/21 01:37:23;;;;;;;;;5.75;4.50;;;;;25.01;42.92;101276.72;5118962;27;50961;-42
2021/08/21 01:39:51;;;;;;;;;5.25;5.00;;;;;25.00;42.87;101272.25;5101560;27;51240;-41
2021/08/21 01:42:17;;;;;;;;;3.25;3.25;;;;;24.99;42.74;101273.34;5099540;27;51181;-41
2021/08/21 01:44:42;;;;;;;;;4.00;4.00;;;;;24.99;42.95;101276.13;5119532;27;50919;-41
2021/08/21 01:47:09;;;;;;;;;3.75;3.75;;;;;24.98;42.87;101271.66;5118944;27;51093;-41
2021/08/21 01:49:35;;;;;;;;;5.00;4.00;;;;;24.96;43.10;101268.28;5118988;27;51327;-44
2021/08/21 01:52:02;;;;;;;;;4.75;4.00;;;;;24.96;42.81;101266.38;5116919;27;51037;-43
2021/08/21 01:54:27;;;;;;;;;3.75;3.75;;;;;24.96;42.72;101262.75;5116726;27;50921;-42
2021/08/21 01:56:56;;;;;;;;;7.00;5.00;;;;;24.94;42.88;101265.78;5113235;27;50949;-42
2021/08/21 01:59:41;;;;;;;;;5.75;4.75;;;;;24.93;42.94;101258.53;5119038;27;51217;-43
2021/08/21 02:02:13;;;;;;;;;4.75;4.75;;;;;24.93;43.28;101263.25;5114798;27;51176;-43
2021/08/21 02:04:39;;;;;;;;;4.25;4.25;;;;;24.92;43.29;101262.41;5106908;27;51116;-43
2021/08/21 02:07:04;;;;;;;;;4.00;4.00;;;;;24.92;43.05;101258.78;5099705;27;52827;-43
2021/08/21 02:09:30;;;;;;;;;7.75;4.00;;;;;24.90;42.99;101258.16;5117040;27;51257;-41
2021/08/21 02:11:57;;;;;;;;;4.00;4.00;;;;;24.90;43.06;101260.94;5117076;27;51045;-43
2021/08/21 02:14:24;;;;;;;;;4.00;3.00;;;;;24.88;43.05;101252.03;5114887;27;51222;-41
2021/08/21 02:16:52;;;;;;;;;6.00;4.75;;;;;24.88;42.93;101255.63;5098876;27;52494;-42
2021/08/21 02:19:18;;;;;;;;;6.25;4.50;;;;;24.87;43.21;101247.56;5118097;27;50936;-41
2021/08/21 02:21:45;;;;;;;;;3.50;3.50;;;;;24.87;42.96;101236.50;5118078;27;51191;-43
2021/08/21 02:24:11;;;;;;;;;7.00;5.25;;;;;24.86;42.83;101248.66;5098670;27;51450;-41
2021/08/21 02:26:41;;;;;;;;;4.75;4.75;;;;;24.85;43.10;101246.97;5080010;27;51084;-42
2021/08/21 02:29:07;;;;;;;;;4.50;4.50;;;;;24.85;42.97;101249.75;5097965;27;51011;-43
2021/08/21 02:31:33;;;;;;;;;5.50;5.50;;;;;24.84;43.06;101245.28;5097746;27;50903;-42
2021/08/21 02:33:59;;;;;;;;;5.00;5.00;;;;;24.83;42.97;101246.38;5114719;27;51099;-44
2021/08/21 02:36:24;;;;;;;;;6.00;5.00;;;;;24.83;43.08;101246.38;5116052;27;51069;-43
2021/08/21 02:38:50;;;;;;;;;5.25;5.25;;;;;24.82;43.17;101242.78;5103585;27;50960;-42
2021/08/21 02:41:16;;;;;;;;;5.00;5.00;;;;;24.81;43.07;101243.03;5080028;27;51176;-43
2021/08/21 02:43:42;;;;;;;;;5.00;5.00;;;;;24.81;43.09;101249.41;5099993;27;51003;-42
2021/08/21 02:46:07;;;;;;;;;2.50;2.50;;;;;24.80;43.20;101242.16;5097849;27;51173;-42
2021/08/21 02:48:32;;;;;;;;;6.50;5.00;;;;;24.80;43.23;101246.84;5079421;27;51117;-44
2021/08/21 02:50:58;;;;;;;;;5.50;4.00;;;;;24.79;43.14;101245.16;5097536;27;51175;-41
2021/08/21 02:53:23;;;;;;;;;4.50;4.25;;;;;24.79;43.42;101239.63;5110150;27;51173;-41
2021/08/21 02:55:48;;;;;;;;;5.00;5.00;;;;;24.78;42.95;101244.31;5118417;27;50997;-41
2021/08/21 02:58:14;;;;;;;;;5.25;4.50;;;;;24.77;43.06;101240.72;5101220;27;51093;-42
2021/08/21 03:00:41;;;;;;;;;5.25;4.75;;;;;24.77;43.09;101237.09;5099105;27;51163;-44
2021/08/21 03:03:07;;;;;;;;;5.25;5.25;;;;;24.75;43.05;101239.28;5087568;27;51192;-42
2021/08/21 03:05:32;;;;;;;;;4.25;4.25;;;;;24.76;43.10;101238.19;5100118;27;51059;-47
2021/08/21 03:07:57;;;;;;;;;4.25;4.25;;;;;24.75;43.08;101237.34;5097143;27;50923;-42
2021/08/21 03:10:23;;;;;;;;;6.25;5.00;;;;;24.74;42.86;101237.59;5117240;27;50990;-41
2021/08/21 03:12:48;;;;;;;;;3.75;3.75;;;;;24.73;42.92;101233.97;5110088;27;51032;-41
2021/08/21 03:15:14;;;;;;;;;5.75;4.00;;;;;24.72;43.26;101232.28;5109005;27;51889;-44
2021/08/21 03:17:39;;;;;;;;;5.00;5.00;;;;;24.71;43.07;101229.78;5109454;27;50967;-42
2021/08/21 03:20:05;;;;;;;;;3.00;3.00;;;;;24.72;43.02;101234.22;5105777;27;51017;-42
2021/08/21 03:22:31;;;;;;;;;4.00;4.00;;;;;24.71;42.97;101238.06;5114726;27;51180;-43
2021/08/21 03:24:56;;;;;;;;;4.50;4.50;;;;;24.70;43.14;101234.47;5100920;27;50997;-43
2021/08/21 03:27:22;;;;;;;;;3.00;3.00;;;;;24.70;42.95;101231.69;5100802;27;51131;-44
2021/08/21 03:29:47;;;;;;;;;4.25;4.25;;;;;24.70;43.08;101225.31;5100741;27;51038;-42
2021/08/21 03:32:16;;;;;;;;;5.75;4.00;;;;;24.69;43.21;101221.66;5102283;27;51026;-46
2021/08/21 03:34:42;;;;;;;;;6.00;6.00;;;;;24.69;43.09;101224.44;5119519;27;53125;-43
2021/08/21 03:37:08;;;;;;;;;4.50;4.50;;;;;24.68;43.21;101221.91;5120767;27;51260;-41
2021/08/21 03:39:33;;;;;;;;;5.00;3.75;;;;;24.67;43.57;101221.06;5101388;27;51023;-43
2021/08/21 03:41:59;;;;;;;;;4.00;4.00;;;;;24.67;43.25;101218.31;5121682;27;51029;-43
2021/08/21 03:44:24;;;;;;;;;7.50;5.75;;;;;24.67;43.44;101223.00;5102025;27;52798;-43
2021/08/21 03:46:49;;;;;;;;;2.75;2.50;;;;;24.65;43.03;101217.72;5121143;27;51115;-42
2021/08/21 03:49:15;;;;;;;;;4.50;4.50;;;;;24.65;43.22;101214.09;5121185;27;51035;-42
2021/08/21 03:51:40;;;;;;;;;5.00;3.75;;;;;24.64;43.16;101210.50;5120916;27;50922;-42
2021/08/21 03:54:06;;;;;;;;;4.00;4.00;;;;;24.64;43.24;101210.50;5119823;27;50959;-43
2021/08/21 03:56:31;;;;;;;;;5.00;5.00;;;;;24.63;43.42;101214.34;5121182;27;51016;-43
2021/08/21 03:58:57;;;;;;;;;4.00;4.00;;;;;24.63;43.25;101217.13;5120433;27;51301;-42
2021/08/21 04:01:22;;;;;;;;;5.00;5.00;;;;;24.63;43.10;101211.56;5111579;27;51405;-43
2021/08/21 04:03:48;;;;;;;;;4.75;4.75;;;;;24.62;43.25;101211.81;5112371;27;51781;-42
2021/08/21 04:06:13;;;;;;;;;4.75;4.25;;;;;24.62;43.25;101206.28;5120511;27;50888;-42
2021/08/21 04:08:38;;;;;;;;;7.00;3.00;;;;;24.61;43.25;101207.38;5120902;27;51073;-43
2021/08/21 04:11:04;;;;;;;;;7.00;5.75;;;;;24.60;43.46;101203.75;5117878;27;51201;-47
2021/08/21 04:13:29;;;;;;;;;2.50;2.50;;;;;24.60;43.41;101202.91;5100200;27;51009;-42
2021/08/21 04:15:55;;;;;;;;;4.00;4.00;;;;;24.58;43.30;101189.28;5104341;27;51033;-42
2021/08/21 04:18:21;;;;;;;;;4.75;3.25;;;;;24.59;43.45;101195.66;5100139;27;51045;-41
2021/08/21 04:20:46;;;;;;;;;3.75;3.75;;;;;24.58;43.37;101196.75;5100013;27;51242;-41
2021/08/21 04:23:12;;;;;;;;;3.75;3.75;;;;;24.57;43.46;101193.13;5108214;27;52395;-42
2021/08/21 04:25:37;;;;;;;;;3.50;3.25;;;;;24.57;43.44;101193.13;5120439;27;50964;-40
2021/08/21 04:28:03;;;;;;;;;8.00;5.00;;;;;24.56;43.14;101197.00;5101359;27;50924;-42
2021/08/21 04:30:29;;;;;;;;;5.75;4.25;;;;;24.55;43.37;101189.78;5100131;27;50876;-44
2021/08/21 04:32:54;;;;;;;;;4.00;3.00;;;;;24.55;43.35;101192.53;5100991;27;51682;-42
2021/08/21 04:35:20;;;;;;;;;6.00;5.00;;;;;24.54;43.21;101188.09;5099695;27;51260;-41
2021/08/21 04:37:45;;;;;;;;;4.75;4.75;;;;;24.54;43.29;101187.25;5100839;27;51233;-40
2021/08/21 04:40:11;;;;;;;;;6.00;5.00;;;;;24.53;43.18;101186.41;5100232;27;50923;-40
2021/08/21 04:42:38;;;;;;;;;3.00;3.00;;;;;24.52;43.47;101181.13;5102367;27;51048;-42
2021/08/21 04:45:05;;;;;;;;;5.00;5.00;;;;;24.52;43.52;101193.03;5102295;27;51289;-45
2021/08/21 04:47:31;;;;;;;;;4.00;4.00;;;;;24.52;43.38;101195.81;5119577;27;51050;-41
2021/08/21 04:49:56;;;;;;;;;4.00;4.00;;;;;24.52;43.30;101197.72;5120254;27;51310;-43
2021/08/21 04:52:22;;;;;;;;;6.50;5.75;;;;;24.50;43.34;101197.13;5119376;27;52069;-43
2021/08/21 04:54:49;;;;;;;;;5.00;3.25;;;;;24.49;43.29;101196.28;5081466;27;51201;-42
2021/08/21 04:57:15;;;;;;;;;5.75;5.25;;;;;24.50;43.25;101192.44;5100011;27;51387;-43
2021/08/21 04:59:41;;;;;;;;;4.00;4.00;;;;;24.49;43.38;101188.00;5099636;27;51064;-43
2021/08/21 05:02:06;;;;;;;;;7.00;6.00;;;;;24.48;43.69;101200.13;5117430;27;51758;-43
2021/08/21 05:04:32;;;;;;;;;6.25;5.75;;;;;24.48;43.36;101195.41;5100845;27;51075;-42
2021/08/21 05:06:57;;;;;;;;;6.50;5.75;;;;;24.47;43.77;101193.75;5099280;27;51183;-44
2021/08/21 05:09:22;;;;;;;;;7.50;4.00;;;;;24.47;43.56;101203.97;5099479;27;51037;-42
2021/08/21 05:11:48;;;;;;;;;3.25;3.25;;;;;24.46;43.68;101203.13;5081084;27;52477;-43
2021/08/21 05:14:13;;;;;;;;;5.00;5.00;;;;;24.45;43.58;101206.16;5115037;27;51099;-44
2021/08/21 05:16:42;;;;;;;;;6.00;4.00;;;;;24.45;43.61;101203.38;5104546;27;51030;-44
2021/08/21 05:19:14;;;;;;;;;5.00;5.00;;;;;24.44;43.63;101205.31;5099494;27;51114;-43
2021/08/21 05:21:48;;;;;;;;;5.00;5.00;;;;;24.44;43.71;101201.69;5098966;27;51915;-42
2021/08/21 05:24:14;;;;;;;;;4.25;4.25;;;;;24.43;43.87;101203.63;5114337;27;51206;-43
2021/08/21 05:26:39;;;;;;;;;3.00;3.00;;;;;24.43;43.77;101202.78;5110832;27;51035;-41
2021/08/21 05:29:05;;;;;;;;;6.25;3.50;;;;;24.42;43.59;101201.94;5099356;27;51149;-41
2021/08/21 05:31:31;;;;;;;;;4.50;3.75;;;;;24.41;43.67;101204.97;5098975;27;51947;-42
2021/08/21 05:33:57;;;;;;;;;4.50;3.75;;;;;24.41;44.14;101214.09;5098641;27;51077;-41
2021/08/21 05:36:22;;;;;;;;;6.75;5.00;;;;;24.40;43.63;101209.66;5098538;27;50986;-43
2021/08/21 05:38:48;;;;;;;;;4.25;4.25;;;;;24.40;43.87;101211.59;5099157;27;50995;-40
2021/08/21 05:41:13;;;;;;;;;2.50;2.50;;;;;24.41;43.66;101218.81;5098803;27;50940;-41
2021/08/21 05:43:38;;;;;;;;;3.75;3.75;;;;;24.38;43.87;101211.78;5100074;27;50996;-45
2021/08/21 05:46:04;;;;;;;;;4.50;4.50;;;;;24.37;43.72;101223.94;5098110;27;51030;-42
2021/08/21 05:48:29;;;;;;;;;5.75;5.00;;;;;24.37;44.30;101217.56;5098989;27;50901;-42
2021/08/21 05:50:55;;;;;;;;;10.00;5.50;;;;;24.36;44.07;101224.19;5098212;27;51602;-41
2021/08/21 05:53:20;;;;;;;;;7.00;4.00;;;;;24.35;44.05;101220.59;5099706;27;51186;-42
2021/08/21 05:55:45;;;;;;;;;8.50;5.00;;;;;24.34;44.07;101224.44;5105893;27;50977;-41
2021/08/21 05:58:11;;;;;;;;;6.25;5.00;;;;;24.33;43.76;101222.75;5119613;27;51430;-42
2021/08/21 06:00:36;;;;;;;;;7.00;6.00;;;;;24.33;44.11;101221.91;5113672;27;52703;-42
2021/08/21 06:03:01;;;;;;;;;4.75;4.75;;;;;24.33;44.38;101221.91;5113512;27;50941;-41
2021/08/21 06:05:27;;;;;;;;;4.00;4.00;;;;;24.31;44.04;101224.09;5098169;27;51132;-41
2021/08/21 06:07:52;;;;;;;;;6.75;6.75;;;;;24.31;44.14;101224.94;5098443;27;51131;-45
2021/08/21 06:10:17;;;;;;;;;8.75;8.50;;;;;24.30;44.10;101223.22;5106971;27;52090;-45
2021/08/21 06:12:43;;;;;;;;;6.00;6.00;;;;;24.30;44.38;101225.13;5117391;27;51096;-45
2021/08/21 06:15:09;;;;;;;;;5.75;5.75;;;;;24.29;44.35;101221.53;5098289;27;51044;-49
2021/08/21 06:17:34;;;;;;;;;8.50;7.00;;;;;24.29;44.17;101227.06;5098376;27;51084;-49
2021/08/21 06:19:59;;;;;;;;;6.25;6.25;;;;;24.28;44.28;101225.38;5097931;27;50986;-45
2021/08/21 06:22:25;;;;;;;;;6.25;5.75;;;;;24.27;44.45;101220.91;5097961;27;51073;-45
2021/08/21 06:24:52;;;;;;;;;5.00;5.00;;;;;24.27;43.98;101220.06;5104721;27;51199;-45
2021/08/21 06:27:18;;;;;;;;;6.75;5.00;;;;;24.25;44.46;101223.06;5107583;27;51158;-47
2021/08/21 06:29:43;;;;;;;;;5.75;4.25;;;;;24.24;44.50;101220.53;5118419;27;51714;-45
2021/08/21 06:32:08;;;;;;;;;6.00;6.00;;;;;24.25;44.56;101225.84;5111051;27;50881;-48
2021/08/21 06:34:34;;;;;;;;;6.50;6.50;;;;;24.25;46.04;101219.47;5114602;27;50909;-47
2021/08/21 06:37:00;;;;;;;;;6.50;4.50;;;;;24.25;46.16;101212.00;5118729;27;50894;-51
2021/08/21 06:39:26;;;;;;;;;4.00;4.00;;;;;24.28;46.78;101210.66;5114341;27;51987;-45
2021/08/21 06:41:52;;;;;;;;;5.00;4.75;;;;;24.31;46.02;101224.94;5079859;27;51497;-45
2021/08/21 06:44:17;;;;;;;;;4.25;4.00;;;;;24.33;46.45;101210.84;5105397;27;51097;-49
2021/08/21 06:46:43;;;;;;;;;8.00;6.00;;;;;24.34;45.30;101212.53;5109956;27;51222;-44
2021/08/21 06:49:08;;;;;;;;;6.50;5.50;;;;;24.35;45.47;101214.22;5097271;27;52623;-44
2021/08/21 06:51:33;;;;;;;;;7.00;7.00;;;;;24.34;45.44;101210.59;5099059;27;51068;-43
2021/08/21 06:53:59;;;;;;;;;8.75;7.00;;;;;24.35;45.25;101211.44;5108336;27;51169;-45
2021/08/21 06:56:24;;;;;;;;;6.75;6.75;;;;;24.34;45.45;101207.00;5102620;27;50886;-48
2021/08/21 06:58:50;;;;;;;;;6.75;6.25;;;;;24.34;45.34;101204.22;5100889;27;50996;-44
2021/08/21 07:01:15;;;;;;;;;6.25;6.25;;;;;24.33;45.03;101200.59;5109746;27;50960;-44
2021/08/21 07:03:41;;;;;;;;;6.00;6.00;;;;;24.34;45.31;101198.69;5101724;27;51140;-45
2021/08/21 07:06:06;;;;;;;;;7.25;5.25;;;;;24.33;45.23;101199.78;5101521;27;51057;-47
2021/08/21 07:08:32;;;;;;;;;9.00;7.75;;;;;24.33;45.16;101197.00;5100858;27;50865;-47
2021/08/21 07:10:57;;;;;;;;;6.00;5.25;;;;;24.32;45.09;101195.31;5101203;27;50976;-44
2021/08/21 07:13:24;;;;;;;;;5.25;5.25;;;;;24.32;45.14;101198.09;5101095;27;51108;-45
2021/08/21 07:15:50;;;;;;;;;6.00;6.00;;;;;24.33;44.85;101205.31;5101298;27;51052;-45
2021/08/21 07:18:16;;;;;;;;;6.75;6.75;;;;;24.31;45.00;101202.78;5101155;27;52090;-43
2021/08/21 07:20:41;;;;;;;;;4.50;4.50;;;;;24.31;45.13;101207.47;5100837;27;51149;-43
2021/08/21 07:23:06;;;;;;;;;8.75;6.75;;;;;24.31;45.18;101208.31;5114507;27;51080;-45
2021/08/21 07:25:32;;;;;;;;;7.00;5.00;;;;;24.31;44.92;101216.63;5121584;27;51125;-44
2021/08/21 07:27:58;;;;;;;;;6.50;6.00;;;;;24.31;45.08;101211.09;5108340;27;51445;-45
2021/08/21 07:30:24;;;;;;;;;7.00;6.75;;;;;24.31;44.86;101215.78;5105328;27;51319;-46
2021/08/21 07:32:49;;;;;;;;;7.00;5.75;;;;;24.31;44.96;101216.63;5107052;27;51010;-46
2021/08/21 07:35:14;;;;;;;;;6.00;5.00;;;;;24.31;45.17;101219.41;5093745;27;51360;-44
2021/08/21 07:37:40;;;;;;;;;8.00;5.00;;;;;24.33;47.11;101224.69;5082238;27;53834;-46
2021/08/21 07:40:06;;;;;;;;;7.50;6.00;;;;;24.34;46.91;101221.66;5106805;27;50969;-45
2021/08/21 07:42:31;;;;;;;;;5.75;5.00;;;;;24.35;47.41;101223.34;5111311;27;51070;-47
2021/08/21 07:44:57;;;;;;;;;2.50;2.25;;;;;24.38;47.81;101222.03;5108754;27;51053;-45
2021/08/21 07:47:22;;;;;;;;;4.75;4.00;;;;;24.39;47.31;101229.28;5105464;27;51600;-50
2021/08/21 07:49:47;;;;;;;;;7.00;5.50;;;;;24.41;47.42;101221.56;5108869;27;51069;-45
2021/08/21 07:52:13;;;;;;;;;6.25;6.00;;;;;24.42;47.36;101223.25;5110268;27;51038;-46
2021/08/21 07:54:38;;;;;;;;;5.75;5.00;;;;;24.44;47.10;101221.91;5099939;27;51076;-47
2021/08/21 07:57:04;;;;;;;;;8.00;5.00;;;;;24.45;47.00;101223.59;5111970;27;52021;-45
2021/08/21 07:59:29;;;;;;;;;9.00;6.00;;;;;24.46;46.98;101216.13;5108683;27;51175;-45
2021/08/21 08:01:54;;;;;;;;;6.25;5.25;;;;;24.45;47.02;101218.06;5104216;27;51062;-48
2021/08/21 08:04:20;;;;;;;;;6.00;5.00;;;;;24.46;46.93;101214.22;5115919;27;50875;-47
2021/08/21 08:06:45;;;;;;;;;8.00;6.00;;;;;24.46;47.32;101211.44;5107038;27;52085;-46
2021/08/21 08:09:10;;;;;;;;;8.00;5.75;;;;;24.48;46.59;101216.75;5111090;27;51129;-45
2021/08/21 08:11:36;;;;;;;;;7.50;6.75;;;;;24.50;46.65;101225.69;5114531;27;51329;-47
2021/08/21 08:14:01;;;;;;;;;6.00;6.00;;;;;24.52;46.61;101223.50;5109092;27;50984;-45
2021/08/21 08:16:26;;;;;;;;;6.50;6.50;;;;;24.52;46.66;101223.50;5120683;27;51659;-45
2021/08/21 08:18:52;;;;;;;;;7.75;6.00;;;;;24.53;46.53;101218.81;5086564;27;51093;-45
2021/08/21 08:21:19;;;;;;;;;7.75;7.00;;;;;24.54;46.43;101220.47;5102959;27;51625;-50
2021/08/21 08:23:46;;;;;;;;;9.75;9.75;;;;;24.55;46.22;101211.09;5113194;27;51131;-48
2021/08/21 08:26:12;;;;;;;;;10.50;7.75;;;;;24.55;46.35;101206.38;5110069;27;51891;-48
2021/08/21 08:28:37;;;;;;;;;7.00;7.00;;;;;24.57;46.60;101209.75;5116791;27;50898;-48
2021/08/21 08:31:03;;;;;;;;;6.50;6.50;;;;;24.59;46.47;101206.75;5107675;27;52521;-45
2021/08/21 08:33:28;;;;;;;;;9.75;7.75;;;;;24.60;46.37;101209.28;5111068;27;51010;-45
2021/08/21 08:35:55;;;;;;;;;10.50;6.00;;;;;24.62;46.46;101204.34;5108428;27;51100;-49
2021/08/21 08:38:20;;;;;;;;;8.50;8.25;;;;;24.63;46.15;101203.25;5108695;27;51360;-40
2021/08/21 08:40:46;;;;;;;;;6.75;5.00;;;;;24.64;46.28;101209.66;5116894;27;51236;-40
2021/08/21 08:43:11;;;;;;;;;8.00;7.50;;;;;24.66;46.43;101204.69;5114426;27;51246;-41
2021/08/21 08:45:37;;;;;;;;;10.00;6.50;;;;;24.67;46.53;101198.06;5092487;27;51051;-47
2021/08/21 08:48:04;;;;;;;;;6.50;6.00;;;;;24.68;46.36;101206.13;5102168;27;51260;-45
2021/08/21 08:50:31;;;;;;;;;7.00;6.00;;;;;24.68;46.21;101206.13;5102390;27;51017;-44
2021/08/21 08:52:56;;;;;;;;;7.00;7.00;;;;;24.70;46.24;101203.16;5102351;27;51110;-46
2021/08/21 08:55:22;;;;;;;;;9.75;6.75;;;;;24.70;47.33;101215.06;5107513;27;51791;-45
2021/08/21 08:57:48;;;;;;;;;7.50;7.00;;;;;24.72;47.40;101218.44;5118808;27;51683;-45
2021/08/21 09:00:17;;;;;;;;;11.50;9.00;;;;;24.75;47.41;101217.09;5112324;27;50850;-47
2021/08/21 09:02:46;;;;;;;;;10.50;7.50;;;;;24.75;47.79;101214.34;5108039;27;51327;-46
2021/08/21 09:05:14;;;;;;;;;7.75;6.00;;;;;24.77;47.86;101223.25;5108808;27;52837;-45
2021/08/21 09:07:45;;;;;;;;;6.75;6.50;;;;;24.78;47.70;101219.38;5115348;27;51202;-49
2021/08/21 09:10:15;;;;;;;;;8.50;7.50;;;;;24.80;47.44;101219.97;5118280;27;51048;-47
2021/08/21 09:12:41;;;;;;;;;8.25;8.25;;;;;24.82;46.94;101217.00;5107121;27;51137;-42
2021/08/21 09:15:24;;;;;;;;;7.25;7.00;;;;;24.84;47.08;101212.03;5080477;27;52429;-43
2021/08/21 09:18:05;;;;;;;;;11.00;9.00;;;;;24.85;46.78;101222.03;5099499;27;51379;-44
2021/08/21 09:20:51;;;;;;;;;7.75;7.75;;;;;24.86;46.99;101213.47;5097879;27;50938;-41
2021/08/21 09:23:35;;;;;;;;;7.25;6.00;;;;;24.88;46.74;101219.63;5098214;27;51052;-43
2021/08/21 09:26:10;;;;;;;;;8.00;8.00;;;;;24.91;46.79;101221.91;5098255;27;50957;-40
2021/08/21 09:28:37;;;;;;;;;9.00;9.00;;;;;24.93;46.70;101224.44;5099263;27;51339;-41
2021/08/21 09:31:10;;;;;;;;;8.50;7.00;;;;;24.92;46.62;101220.84;5098540;27;51223;-41
2021/08/21 09:33:40;;;;;;;;;8.50;8.50;;;;;24.96;46.60;101221.19;5080700;27;51234;-43
2021/08/21 09:36:11;;;;;;;;;13.50;12.00;;;;;24.97;46.65;101220.09;5098159;27;50924;-41
2021/08/21 09:38:37;;;;;;;;;9.00;8.00;;;;;24.98;46.67;101217.06;5098399;27;51285;-44
2021/08/21 09:41:07;;;;;;;;;10.75;8.00;;;;;25.00;46.39;101205.72;5099355;27;51006;-41
2021/08/21 09:43:35;;;;;;;;;6.00;6.00;;;;;25.01;46.73;101205.56;5098480;27;50861;-40
2021/08/21 09:46:10;;;;;;;;;9.25;9.25;;;;;25.03;46.48;101214.47;5098164;27;50906;-42
2021/08/21 09:48:53;;;;;;;;;8.25;8.25;;;;;25.06;46.45;101212.28;5097992;27;50921;-40
2021/08/21 09:51:51;;;;;;;;;8.75;8.75;;;;;25.08;46.66;101204.56;5118369;27;51199;-41
2021/08/21 09:54:22;;;;;;;;;10.00;9.50;;;;;25.08;46.75;101194.31;5062313;27;51332;-40
2021/08/21 09:56:55;;;;;;;;;8.75;8.75;;;;;25.11;46.61;101192.97;5118615;27;51774;-40
2021/08/21 09:59:44;;;;;;;;;8.25;8.25;;;;;25.12;46.54;101189.13;5105865;27;51313;-41
2021/08/21 10:02:14;;;;;;;;;6.25;6.25;;;;;25.14;46.55;101187.78;5118771;27;51043;-41
2021/08/21 10:04:41;;;;;;;;;7.50;7.50;;;;;25.16;46.76;101190.31;5118627;27;51342;-43
2021/08/21 10:07:09;;;;;;;;;8.75;8.00;;;;;25.18;46.77;101182.59;5118094;27;52746;-44
2021/08/21 10:09:39;;;;;;;;;10.25;9.00;;;;;25.18;46.85;101197.28;5116122;27;50954;-40
2021/08/21 10:12:06;;;;;;;;;8.25;7.75;;;;;25.21;46.76;101194.03;5118260;27;50923;-41
2021/08/21 10:14:33;;;;;;;;;10.00;7.25;;;;;25.23;46.58;101185.50;5118625;27;51526;-40
2021/08/21 10:17:00;;;;;;;;;9.75;7.75;;;;;25.25;46.91;101184.16;5098415;27;51888;-41
2021/08/21 10:19:25;;;;;;;;;7.00;7.00;;;;;25.27;46.74;101190.28;5114002;27;51046;-42
2021/08/21 10:22:00;;;;;;;;;8.50;7.25;;;;;25.29;46.39;101195.56;5099886;27;50984;-41
2021/08/21 10:24:29;;;;;;;;;8.00;7.00;;;;;25.29;47.04;101190.88;5111287;27;51004;-41
2021/08/21 10:27:05;;;;;;;;;7.00;7.00;;;;;25.31;46.63;101194.22;5102280;27;52671;-41
2021/08/21 10:29:32;;;;;;;;;8.25;7.00;;;;;25.33;46.76;101186.53;5079130;27;51269;-43
2021/08/21 10:31:57;;;;;;;;;7.25;7.25;;;;;25.35;46.88;101185.44;5097023;27;50973;-41
2021/08/21 10:34:23;;;;;;;;;8.75;7.50;;;;;25.36;46.73;101179.66;5079339;27;50905;-40
2021/08/21 10:36:57;;;;;;;;;11.25;10.50;;;;;25.39;46.83;101187.47;5097754;27;50968;-42
2021/08/21 10:39:35;;;;;;;;;7.00;7.00;;;;;25.40;46.60;101180.81;5097006;27;50962;-41
2021/08/21 10:42:27;;;;;;;;;8.00;8.00;;;;;25.43;46.85;101176.69;5097250;27;51283;-43
2021/08/21 10:44:54;;;;;;;;;9.00;8.50;;;;;25.45;46.87;101180.09;5105409;27;51200;-40
2021/08/21 10:47:33;;;;;;;;;9.25;9.25;;;;;25.47;46.70;101186.22;5082101;27;54337;-41
2021/08/21 10:50:29;;;;;;;;;9.50;8.00;;;;;25.49;46.48;101179.34;5113562;27;51235;-43
2021/08/21 10:52:56;;;;;;;;;8.25;7.25;;;;;25.51;46.87;101181.88;5116853;27;51250;-41
2021/08/21 10:55:36;;;;;;;;;9.25;7.00;;;;;25.53;46.97;101180.56;5117833;27;51100;-40
2021/08/21 10:58:19;;;;;;;;;7.25;7.00;;;;;25.55;46.65;101183.91;5115259;27;51681;-40
2021/08/21 11:00:49;;;;;;;;;8.25;7.25;;;;;25.56;46.71;101176.44;5112861;27;51555;-41
2021/08/21 11:03:17;;;;;;;;;10.00;9.50;;;;;25.59;46.63;101176.75;5115217;27;51096;-41
2021/08/21 11:06:06;;;;;;;;;10.25;9.00;;;;;25.61;46.78;101179.28;5116634;27;51466;-40
2021/08/21 11:08:38;;;;;;;;;9.00;9.00;;;;;25.62;46.66;101179.03;5101962;27;52654;-41
2021/08/21 11:13:54;;;;;;;;;9.25;7.75;;;;;25.66;47.32;101173.84;5111572;27;51284;-44
2021/08/21 11:16:21;;;;;;;;;7.75;7.00;;;;;25.69;46.88;101178.03;5099027;27;51990;-42
2021/08/21 11:18:49;;;;;;;;;10.00;8.00;;;;;25.70;47.39;101180.59;5109755;27;51284;-41
2021/08/21 11:21:43;;;;;;;;;7.00;5.25;;;;;25.73;46.76;101179.25;5109109;27;51384;-43
2021/08/21 11:24:29;;;;;;;;;9.00;8.00;;;;;25.73;47.00;101163.44;5097137;27;51332;-42
2021/08/21 11:27:22;;;;;;;;;9.25;7.25;;;;;25.75;47.13;101180.72;5089443;27;51134;-44
2021/08/21 11:30:12;;;;;;;;;8.00;7.00;;;;;25.77;47.10;101174.91;5105791;27;51841;-42